SAS001 EDDF-EKCH
Flight info
| Callsign | SAS001 |
|---|---|
| Flight time | N/A |
| Altitude | 37000 |
| Route | MARUN6E MARUN Y150 TOLGI DCT SAS DCT MAKEL N851 GESKA Z711 MONAK |
| Aircraft | A320/M-SDE3FGHIRWY/LB1 |
Departure
| Time | N/A |
|---|---|
| Airport | Frankfurt Main Airport (EDDF) |
Arrival
| Time | 2026-05-01 15:00 |
|---|---|
| Airport | Copenhagen Kastrup Airport (EKCH) |
| Time | Latitude | Longitude | Altitude | Speed | Heading |
|---|---|---|---|---|---|
| 2026-05-01 14:37 | 53.91397 | 11.31228 | 37376 ft | 446 kts | 27° |
| 2026-05-01 14:38 | 53.96876 | 11.36150 | 37384 ft | 446 kts | 27° |
| 2026-05-01 14:38 | 54.02353 | 11.41094 | 37382 ft | 446 kts | 27° |
| 2026-05-01 14:39 | 54.07827 | 11.46051 | 37384 ft | 446 kts | 27° |
| 2026-05-01 14:39 | 54.13305 | 11.51020 | 37387 ft | 446 kts | 27° |
| 2026-05-01 14:40 | 54.18791 | 11.55996 | 37388 ft | 446 kts | 27° |
| 2026-05-01 14:40 | 54.21527 | 11.58496 | 37192 ft | 446 kts | 28° |
| 2026-05-01 14:40 | 54.24266 | 11.61006 | 36930 ft | 446 kts | 28° |
| 2026-05-01 14:40 | 54.26999 | 11.63507 | 36664 ft | 446 kts | 28° |
| 2026-05-01 14:41 | 54.29736 | 11.66010 | 36406 ft | 446 kts | 28° |
| 2026-05-01 14:41 | 54.32438 | 11.68488 | 36150 ft | 447 kts | 28° |
| 2026-05-01 14:41 | 54.35176 | 11.71004 | 35898 ft | 447 kts | 29° |
| 2026-05-01 14:41 | 54.37920 | 11.73530 | 35647 ft | 448 kts | 28° |
| 2026-05-01 14:42 | 54.40662 | 11.76060 | 35402 ft | 448 kts | 29° |
| 2026-05-01 14:42 | 54.43411 | 11.78599 | 35102 ft | 448 kts | 28° |
| 2026-05-01 14:42 | 54.46176 | 11.81106 | 34313 ft | 451 kts | 27° |
| 2026-05-01 14:42 | 54.49016 | 11.83481 | 33341 ft | 455 kts | 25° |
| 2026-05-01 14:43 | 54.51903 | 11.85736 | 32464 ft | 457 kts | 24° |
| 2026-05-01 14:43 | 54.54822 | 11.87937 | 31535 ft | 459 kts | 24° |
| 2026-05-01 14:43 | 54.57756 | 11.90143 | 30555 ft | 461 kts | 24° |
| 2026-05-01 14:43 | 54.60694 | 11.92398 | 29423 ft | 463 kts | 26° |
| 2026-05-01 14:44 | 54.63482 | 11.95152 | 28363 ft | 462 kts | 34° |
| 2026-05-01 14:44 | 54.68853 | 12.01385 | 25973 ft | 469 kts | 34° |
| 2026-05-01 14:44 | 54.71574 | 12.04551 | 24754 ft | 472 kts | 34° |
| 2026-05-01 14:45 | 54.74307 | 12.07727 | 23623 ft | 474 kts | 34° |
| 2026-05-01 14:45 | 54.79722 | 12.14009 | 21742 ft | 462 kts | 33° |
| 2026-05-01 14:45 | 54.82373 | 12.17086 | 20829 ft | 457 kts | 33° |
| 2026-05-01 14:46 | 54.85000 | 12.20143 | 19925 ft | 453 kts | 33° |
| 2026-05-01 14:46 | 54.90179 | 12.26191 | 18103 ft | 445 kts | 33° |
| 2026-05-01 14:46 | 54.92729 | 12.29178 | 17223 ft | 439 kts | 33° |
| 2026-05-01 14:47 | 54.95247 | 12.32137 | 16369 ft | 435 kts | 33° |
| 2026-05-01 14:47 | 54.97746 | 12.35074 | 15525 ft | 432 kts | 33° |
| 2026-05-01 14:47 | 55.00231 | 12.37995 | 14726 ft | 430 kts | 33° |
| 2026-05-01 14:48 | 55.05177 | 12.43778 | 13219 ft | 424 kts | 33° |
| 2026-05-01 14:48 | 55.07579 | 12.46578 | 13049 ft | 406 kts | 33° |
| 2026-05-01 14:48 | 55.12058 | 12.51817 | 12787 ft | 370 kts | 33° |
| 2026-05-01 14:49 | 55.16169 | 12.56632 | 12535 ft | 342 kts | 33° |
| 2026-05-01 14:49 | 55.19982 | 12.61120 | 12276 ft | 320 kts | 33° |
| 2026-05-01 14:50 | 55.22394 | 12.63953 | 12021 ft | 310 kts | 31° |
| 2026-05-01 14:50 | 55.27781 | 12.67552 | 11196 ft | 310 kts | 16° |
| 2026-05-01 14:51 | 55.29827 | 12.68711 | 10869 ft | 309 kts | 17° |
| 2026-05-01 14:51 | 55.33907 | 12.71035 | 10158 ft | 307 kts | 17° |
| 2026-05-01 14:52 | 55.37952 | 12.73335 | 9443 ft | 304 kts | 17° |
| 2026-05-01 14:52 | 55.39955 | 12.74474 | 9097 ft | 302 kts | 17° |
| 2026-05-01 14:52 | 55.43927 | 12.76748 | 8414 ft | 298 kts | 17° |
| 2026-05-01 14:53 | 55.45887 | 12.77872 | 7935 ft | 295 kts | 17° |
| 2026-05-01 14:53 | 55.47839 | 12.78992 | 7458 ft | 293 kts | 17° |
| 2026-05-01 14:53 | 55.49770 | 12.80101 | 7017 ft | 290 kts | 17° |
| 2026-05-01 14:53 | 55.51669 | 12.81195 | 6696 ft | 285 kts | 17° |
| 2026-05-01 14:54 | 55.53554 | 12.82281 | 6398 ft | 284 kts | 17° |
| 2026-05-01 14:54 | 55.55423 | 12.83357 | 6131 ft | 282 kts | 17° |
| 2026-05-01 14:54 | 55.57267 | 12.84527 | 5853 ft | 281 kts | 20° |
| 2026-05-01 14:54 | 55.59072 | 12.85804 | 5581 ft | 278 kts | 21° |
| 2026-05-01 14:55 | 55.60845 | 12.87112 | 5306 ft | 275 kts | 21° |
| 2026-05-01 14:55 | 55.62559 | 12.88553 | 5072 ft | 271 kts | 31° |
| 2026-05-01 14:55 | 55.64029 | 12.90591 | 4819 ft | 268 kts | 41° |
| 2026-05-01 14:55 | 55.65476 | 12.92638 | 4509 ft | 264 kts | 25° |
| 2026-05-01 14:56 | 55.67217 | 12.93408 | 4208 ft | 257 kts | 356° |
| 2026-05-01 14:56 | 55.68923 | 12.92746 | 3900 ft | 250 kts | 332° |
| 2026-05-01 14:56 | 55.70280 | 12.90940 | 3659 ft | 242 kts | 308° |
| 2026-05-01 14:56 | 55.71082 | 12.88427 | 3411 ft | 236 kts | 286° |
| 2026-05-01 14:57 | 55.71261 | 12.85571 | 3072 ft | 234 kts | 263° |
| 2026-05-01 14:57 | 55.70335 | 12.80061 | 2402 ft | 234 kts | 251° |
| 2026-05-01 14:57 | 55.69485 | 12.77564 | 1910 ft | 241 kts | 225° |
| 2026-05-01 14:58 | 55.68249 | 12.75609 | 1559 ft | 232 kts | 222° |
| 2026-05-01 14:58 | 55.67069 | 12.73793 | 1258 ft | 217 kts | 222° |
| 2026-05-01 14:58 | 55.65968 | 12.72086 | 972 ft | 204 kts | 223° |
| 2026-05-01 14:58 | 55.64934 | 12.70478 | 721 ft | 191 kts | 220° |
| 2026-05-01 14:59 | 55.63965 | 12.68973 | 424 ft | 179 kts | 220° |
| 2026-05-01 14:59 | 55.63090 | 12.67610 | 223 ft | 159 kts | 220° |
| 2026-05-01 14:59 | 55.62287 | 12.66377 | 28 ft | 144 kts | 224° |
| 2026-05-01 14:59 | 55.61645 | 12.65372 | 23 ft | 99 kts | 221° |
| 2026-05-01 15:00 | 55.61255 | 12.64602 | 24 ft | 21 kts | 250° |
| 2026-05-01 15:00 | 55.61209 | 12.64367 | 24 ft | 12 kts | 251° |
| 2026-05-01 15:00 | 55.61190 | 12.64265 | 25 ft | 4 kts | 252° |
| 2026-05-01 15:01 | 55.61188 | 12.64204 | 24 ft | 6 kts | 278° |
| 2026-05-01 15:01 | 55.61213 | 12.64131 | 24 ft | 8 kts | 320° |
| 2026-05-01 15:01 | 55.61275 | 12.64112 | 24 ft | 10 kts | 12° |
| 2026-05-01 15:01 | 55.61346 | 12.64185 | 25 ft | 13 kts | 33° |
| 2026-05-01 15:02 | 55.61431 | 12.64284 | 24 ft | 16 kts | 33° |
| 2026-05-01 15:02 | 55.61464 | 12.64323 | 24 ft | 17 kts | 33° |
| 2026-05-01 15:02 | 55.61652 | 12.64540 | 24 ft | 22 kts | 34° |
| 2026-05-01 15:02 | 55.61785 | 12.64693 | 24 ft | 24 kts | 31° |
| 2026-05-01 15:03 | 55.61914 | 12.64839 | 24 ft | 15 kts | 32° |
| 2026-05-01 15:03 | 55.61966 | 12.64898 | 25 ft | 8 kts | 32° |
| 2026-05-01 15:03 | 55.62019 | 12.64958 | 24 ft | 10 kts | 33° |
| 2026-05-01 15:03 | 55.62059 | 12.65005 | 24 ft | 0 kts | 34° |
| 2026-05-01 15:05 | 55.62074 | 12.65024 | 24 ft | 6 kts | 34° |
| 2026-05-01 15:05 | 55.62130 | 12.65089 | 24 ft | 13 kts | 33° |
| 2026-05-01 15:05 | 55.62216 | 12.65172 | 27 ft | 15 kts | 5° |
| 2026-05-01 15:05 | 55.62287 | 12.65048 | 24 ft | 15 kts | 303° |
| 2026-05-01 15:06 | 55.62348 | 12.64887 | 24 ft | 16 kts | 304° |
| 2026-05-01 15:06 | 55.62410 | 12.64725 | 26 ft | 12 kts | 303° |
| 2026-05-01 15:06 | 55.62481 | 12.64657 | 24 ft | 12 kts | 351° |
| 2026-05-01 15:06 | 55.62563 | 12.64653 | 24 ft | 11 kts | 1° |
| 2026-05-01 15:07 | 55.62627 | 12.64655 | 24 ft | 7 kts | 345° |
| 2026-05-01 15:07 | 55.62644 | 12.64594 | 24 ft | 3 kts | 282° |
| 2026-05-01 15:07 | 55.62646 | 12.64576 | 24 ft | 0 kts | 282° |
| 2026-05-01 15:07 | 55.62647 | 12.64573 | 25 ft | 1 kts | 282° |
| 2026-05-01 15:08 | 55.62648 | 12.64563 | 24 ft | 0 kts | 281° |
| 2026-05-01 15:15 | 55.62647 | 12.64561 | 24 ft | 0 kts | 282° |